createdAt,value
2017-11-07T00:00:20.467Z,84.85
2017-11-07T00:02:48.030Z,84.97
2017-11-07T00:05:15.586Z,84.93
2017-11-07T00:07:43.082Z,84.52
2017-11-07T00:10:16.083Z,84.65
2017-11-07T00:12:43.564Z,84.82
2017-11-07T00:15:11.090Z,85.39
2017-11-07T00:17:38.586Z,84.08
2017-11-07T00:20:06.089Z,84.53
2017-11-07T00:22:35.392Z,84.18
2017-11-07T00:25:02.914Z,85.11
2017-11-07T00:27:30.422Z,83.73
2017-11-07T00:29:57.941Z,83.66
2017-11-07T00:32:25.433Z,83.07
2017-11-07T00:34:52.936Z,82.81
2017-11-07T00:37:20.434Z,83.47
2017-11-07T00:39:47.924Z,83.68
2017-11-07T00:42:15.430Z,84.14
2017-11-07T00:44:42.927Z,83.57
2017-11-07T00:47:10.410Z,83.18
2017-11-07T00:49:37.941Z,83.64
2017-11-07T00:52:05.462Z,83.27
2017-11-07T00:54:33.006Z,83.19
2017-11-07T00:57:00.500Z,83.22
2017-11-07T00:59:27.997Z,84.23
2017-11-07T01:01:55.546Z,84.42
2017-11-07T01:04:23.039Z,83.88
2017-11-07T01:06:50.551Z,83.95
2017-11-07T01:09:18.050Z,84.75
2017-11-07T01:11:45.539Z,83.73
2017-11-07T01:14:13.055Z,83.77
2017-11-07T01:16:40.543Z,83.83
2017-11-07T01:19:08.038Z,83.77
2017-11-07T01:21:35.540Z,84.11
2017-11-07T01:24:03.056Z,84.08
2017-11-07T01:26:30.542Z,83.89
2017-11-07T01:28:58.064Z,83.63
2017-11-07T01:31:25.568Z,84.29
2017-11-07T01:33:53.070Z,84.43
2017-11-07T01:36:20.594Z,84.64
2017-11-07T01:38:48.148Z,84.22
2017-11-07T01:41:15.704Z,84.57
2017-11-07T01:43:43.216Z,83.71
2017-11-07T01:46:10.716Z,84.20
2017-11-07T01:48:38.218Z,84.40
2017-11-07T01:51:05.741Z,85.59
2017-11-07T01:53:33.236Z,85.55
2017-11-07T01:56:00.744Z,85.43
2017-11-07T01:58:28.234Z,84.76
2017-11-07T02:00:55.838Z,85.56
2017-11-07T02:03:23.341Z,85.75
2017-11-07T02:05:50.837Z,84.66
2017-11-07T02:08:18.337Z,85.18
2017-11-07T02:10:45.851Z,85.64
2017-11-07T02:13:13.346Z,85.31
2017-11-07T02:15:40.856Z,84.28
2017-11-07T02:18:08.365Z,85.08
2017-11-07T02:20:35.856Z,86.11
2017-11-07T02:23:03.353Z,85.68
2017-11-07T02:25:30.857Z,86.33
2017-11-07T02:27:58.368Z,86.04
2017-11-07T02:30:25.866Z,85.59
2017-11-07T02:32:53.375Z,84.95
2017-11-07T02:35:20.883Z,85.45
2017-11-07T02:37:48.411Z,85.09
2017-11-07T02:40:15.908Z,84.27
2017-11-07T02:42:43.418Z,83.97
2017-11-07T02:45:10.903Z,84.31
2017-11-07T02:47:38.396Z,86.07
2017-11-07T02:50:05.908Z,85.89
2017-11-07T02:52:33.409Z,85.95
2017-11-07T02:55:00.904Z,85.71
2017-11-07T02:57:28.398Z,86.02
2017-11-07T02:59:55.898Z,86.23
2017-11-07T03:02:23.407Z,86.61
2017-11-07T03:04:50.918Z,86.89
2017-11-07T03:07:18.417Z,87.17
2017-11-07T03:09:45.923Z,86.60
2017-11-07T03:12:13.420Z,85.88
2017-11-07T03:14:40.935Z,86.64
2017-11-07T03:17:08.460Z,87.16
2017-11-07T03:19:35.974Z,86.94
2017-11-07T03:22:03.500Z,86.68
2017-11-07T03:24:31.002Z,86.20
2017-11-07T03:26:58.500Z,86.69
2017-11-07T03:29:26.017Z,86.65
2017-11-07T03:31:53.524Z,86.90
2017-11-07T03:34:21.033Z,87.27
2017-11-07T03:36:48.537Z,87.47
2017-11-07T03:39:16.045Z,87.72
2017-11-07T03:41:43.567Z,87.34
2017-11-07T03:44:11.072Z,87.88
2017-11-07T03:46:38.568Z,87.22
2017-11-07T03:49:06.078Z,87.01
2017-11-07T03:51:33.706Z,87.61
2017-11-07T03:54:01.221Z,87.37
2017-11-07T03:56:28.854Z,87.12
2017-11-07T03:58:56.364Z,87.44
2017-11-07T04:01:23.857Z,88.33
2017-11-07T04:03:51.359Z,87.15
2017-11-07T04:06:18.865Z,87.00
2017-11-07T04:08:46.389Z,87.90
2017-11-07T04:11:13.881Z,87.51
2017-11-07T04:13:41.393Z,88.14
2017-11-07T04:16:08.900Z,86.82
2017-11-07T04:18:36.409Z,86.83
2017-11-07T04:21:03.920Z,87.69
2017-11-07T04:23:31.412Z,87.91
2017-11-07T04:25:58.905Z,88.50
2017-11-07T04:28:26.427Z,88.22
2017-11-07T04:30:53.922Z,87.33
2017-11-07T04:33:21.414Z,87.81
2017-11-07T04:35:48.918Z,88.44
2017-11-07T04:38:16.425Z,88.97
2017-11-07T04:40:43.955Z,89.04
2017-11-07T04:43:11.461Z,89.36
2017-11-07T04:45:38.995Z,89.08
2017-11-07T04:48:06.509Z,88.69
2017-11-07T04:50:34.019Z,89.23
2017-11-07T04:53:01.517Z,90.07
2017-11-07T04:55:29.025Z,89.45
2017-11-07T04:57:56.537Z,89.19
2017-11-07T05:00:24.037Z,90.37
2017-11-07T05:02:51.550Z,89.54
2017-11-07T05:05:19.060Z,89.06
2017-11-07T05:07:46.558Z,89.14
2017-11-07T05:10:14.059Z,89.72
2017-11-07T05:12:41.566Z,89.37
2017-11-07T05:15:09.074Z,89.26
2017-11-07T05:17:36.591Z,89.58
2017-11-07T05:20:04.115Z,89.89
2017-11-07T05:22:31.622Z,89.74
2017-11-07T05:24:59.138Z,90.01
2017-11-07T05:27:26.715Z,89.65
2017-11-07T05:29:54.239Z,89.96
2017-11-07T05:32:21.724Z,90.03
2017-11-07T05:34:49.227Z,89.86
2017-11-07T05:37:16.743Z,90.21
2017-11-07T05:39:44.345Z,90.11
2017-11-07T05:42:11.860Z,90.42
2017-11-07T05:44:39.362Z,89.85
2017-11-07T05:47:06.864Z,89.95
2017-11-07T05:49:34.378Z,90.70
2017-11-07T05:52:01.901Z,90.09
2017-11-07T05:54:29.414Z,90.11
2017-11-07T05:56:56.912Z,89.86
2017-11-07T05:59:24.432Z,89.61
2017-11-07T06:01:51.928Z,89.80
2017-11-07T06:04:19.444Z,90.26
2017-11-07T06:06:46.954Z,89.61
2017-11-07T06:09:14.495Z,89.32
2017-11-07T06:11:42.009Z,89.13
2017-11-07T06:14:09.522Z,88.79
2017-11-07T06:16:37.040Z,89.26
2017-11-07T06:19:04.552Z,89.18
2017-11-07T06:21:32.054Z,89.37
2017-11-07T06:23:59.594Z,88.68
2017-11-07T06:26:27.097Z,89.31
2017-11-07T06:28:54.597Z,89.24
2017-11-07T06:31:22.107Z,88.28
2017-11-07T06:33:50.594Z,89.69
2017-11-07T06:36:18.100Z,90.45
2017-11-07T06:38:45.620Z,91.13
2017-11-07T06:41:13.118Z,92.29
2017-11-07T06:43:40.626Z,91.95
2017-11-07T06:46:08.134Z,91.51
2017-11-07T06:48:35.634Z,91.85
2017-11-07T06:51:03.141Z,92.60
2017-11-07T06:53:30.647Z,92.21
2017-11-07T06:55:58.173Z,92.67
2017-11-07T06:58:25.688Z,92.85
2017-11-07T07:00:53.194Z,92.22
2017-11-07T07:03:20.696Z,91.51
2017-11-07T07:05:48.193Z,91.05
2017-11-07T07:08:15.702Z,92.33
2017-11-07T07:10:43.215Z,92.36
2017-11-07T07:13:10.709Z,91.92
2017-11-07T07:15:38.326Z,91.83
2017-11-07T07:18:05.831Z,91.81
2017-11-07T07:20:33.330Z,91.85
2017-11-07T07:23:00.852Z,92.95
2017-11-07T07:25:28.373Z,93.26
2017-11-07T07:27:55.874Z,92.51
2017-11-07T07:30:23.371Z,93.58
2017-11-07T07:32:50.897Z,93.34
2017-11-07T07:35:18.411Z,93.79
2017-11-07T07:37:45.938Z,93.49
2017-11-07T07:40:13.441Z,93.91
2017-11-07T07:42:40.943Z,94.39
2017-11-07T07:45:08.436Z,95.60
2017-11-07T07:47:35.943Z,95.71
2017-11-07T07:50:03.470Z,95.78
2017-11-07T07:52:31.043Z,96.00
2017-11-07T07:54:58.603Z,95.79
2017-11-07T07:57:26.094Z,95.58
2017-11-07T07:59:53.595Z,95.37
2017-11-07T08:02:21.107Z,95.93
2017-11-07T08:04:48.603Z,95.59
2017-11-07T08:07:16.123Z,96.12
2017-11-07T08:09:43.630Z,95.85
2017-11-07T08:12:11.150Z,95.85
2017-11-07T08:14:38.648Z,96.30
2017-11-07T08:17:06.150Z,96.08
2017-11-07T08:19:33.659Z,95.92
2017-11-07T08:22:01.181Z,95.91
2017-11-07T08:24:28.797Z,96.21
2017-11-07T08:26:56.291Z,96.26
2017-11-07T08:29:23.818Z,94.83
2017-11-07T08:31:51.315Z,94.59
2017-11-07T08:34:18.819Z,95.87
2017-11-07T08:36:46.330Z,95.87
2017-11-07T08:39:13.867Z,95.44
2017-11-07T08:41:41.383Z,95.63
2017-11-07T08:44:08.883Z,96.10
2017-11-07T08:46:36.382Z,95.98
2017-11-07T08:49:03.883Z,95.78
2017-11-07T08:51:31.407Z,95.58
2017-11-07T08:53:58.916Z,95.84
2017-11-07T08:56:26.430Z,94.62
2017-11-07T08:58:53.926Z,94.49
2017-11-07T09:01:21.421Z,95.21
2017-11-07T09:03:48.934Z,94.95
2017-11-07T09:06:16.437Z,95.47
2017-11-07T09:08:43.932Z,95.08
2017-11-07T09:11:11.450Z,95.25
2017-11-07T09:13:38.971Z,95.28
2017-11-07T09:16:06.465Z,95.46
2017-11-07T09:18:33.966Z,95.98
2017-11-07T09:21:01.468Z,96.22
2017-11-07T09:23:28.983Z,96.66
2017-11-07T09:25:56.525Z,96.07
2017-11-07T09:28:24.027Z,95.85
2017-11-07T09:30:51.541Z,96.13
2017-11-07T09:33:19.042Z,96.37
2017-11-07T09:35:46.566Z,96.70
2017-11-07T09:38:14.071Z,96.26
2017-11-07T09:40:41.572Z,96.15
2017-11-07T09:43:09.144Z,96.03
2017-11-07T09:45:36.667Z,94.16
2017-11-07T09:48:04.183Z,94.46
2017-11-07T09:50:31.696Z,94.26
2017-11-07T09:52:59.202Z,94.29
2017-11-07T09:55:26.690Z,94.37
2017-11-07T09:57:54.195Z,94.17
2017-11-07T10:00:21.722Z,94.56
2017-11-07T10:02:49.246Z,94.40
2017-11-07T10:05:16.765Z,94.41
2017-11-07T10:07:44.268Z,93.68
2017-11-07T10:10:11.782Z,91.77
2017-11-07T10:12:39.613Z,92.83
2017-11-07T10:15:07.123Z,93.62
2017-11-07T10:17:34.614Z,93.73
2017-11-07T10:20:02.105Z,91.47
2017-11-07T10:22:29.611Z,91.98
2017-11-07T10:24:57.245Z,91.52
2017-11-07T10:27:24.777Z,91.78
2017-11-07T10:29:52.285Z,92.51
2017-11-07T10:32:19.828Z,92.10
2017-11-07T10:34:47.326Z,92.04
2017-11-07T10:37:14.829Z,92.21
2017-11-07T10:39:42.334Z,91.62
2017-11-07T10:42:09.845Z,91.72
2017-11-07T10:44:37.559Z,92.65
2017-11-07T10:47:05.083Z,91.62
2017-11-07T10:49:32.603Z,91.80
2017-11-07T10:52:00.174Z,90.61
2017-11-07T10:54:27.734Z,91.28
2017-11-07T10:56:55.259Z,91.24
2017-11-07T10:59:22.777Z,89.97
2017-11-07T11:01:50.293Z,91.62
2017-11-07T11:04:17.801Z,90.79
2017-11-07T11:06:45.307Z,90.04
2017-11-07T11:09:12.805Z,90.46
2017-11-07T11:11:40.322Z,89.77
2017-11-07T11:14:07.835Z,90.66
2017-11-07T11:16:35.334Z,90.37
2017-11-07T11:19:02.827Z,90.44
2017-11-07T11:21:30.345Z,90.84
2017-11-07T11:23:57.872Z,90.42
2017-11-07T11:26:25.369Z,89.33
2017-11-07T11:28:52.861Z,90.32
2017-11-07T11:31:20.383Z,89.28
2017-11-07T11:33:47.891Z,89.95
2017-11-07T11:36:15.513Z,89.55
2017-11-07T11:38:43.073Z,90.09
2017-11-07T11:41:10.581Z,90.05
2017-11-07T11:43:38.090Z,90.82
2017-11-07T11:46:05.607Z,91.22
2017-11-07T11:48:33.128Z,91.30
2017-11-07T11:51:00.653Z,91.83
2017-11-07T11:53:28.147Z,91.38
2017-11-07T11:55:55.669Z,91.21
2017-11-07T11:58:23.167Z,90.40
2017-11-07T12:00:50.660Z,91.59
2017-11-07T12:03:18.190Z,92.24
2017-11-07T12:05:45.693Z,91.81
2017-11-07T12:08:13.211Z,90.70
2017-11-07T12:10:40.712Z,90.61
2017-11-07T12:13:08.235Z,91.29
2017-11-07T12:15:35.768Z,91.58
2017-11-07T12:18:03.267Z,91.55
2017-11-07T12:20:30.829Z,91.25
2017-11-07T12:22:58.344Z,91.23
2017-11-07T12:25:25.854Z,91.77
2017-11-07T12:27:53.378Z,90.99
2017-11-07T12:30:21.016Z,90.93
2017-11-07T12:32:48.541Z,91.98
2017-11-07T12:35:16.055Z,90.71
2017-11-07T12:37:43.575Z,90.53
2017-11-07T12:40:11.078Z,89.57
2017-11-07T12:42:38.587Z,90.77
2017-11-07T12:45:06.101Z,91.00
2017-11-07T12:47:33.609Z,90.05
2017-11-07T12:53:03.188Z,90.06
2017-11-07T12:55:30.702Z,89.12
2017-11-07T12:57:58.214Z,90.52
2017-11-07T13:00:25.736Z,90.76
2017-11-07T13:02:53.252Z,91.15
2017-11-07T13:05:20.753Z,91.04
2017-11-07T13:07:48.258Z,90.99
2017-11-07T13:10:15.786Z,91.34
2017-11-07T13:12:43.281Z,90.89
2017-11-07T13:15:10.787Z,90.21
2017-11-07T13:17:38.401Z,90.39
2017-11-07T13:20:05.921Z,89.29
2017-11-07T13:22:33.463Z,89.42
2017-11-07T13:25:00.973Z,90.10
2017-11-07T13:27:28.505Z,90.21
2017-11-07T13:29:56.026Z,89.60
2017-11-07T13:32:23.541Z,90.11
2017-11-07T13:34:51.068Z,90.65
2017-11-07T13:37:18.668Z,90.81
2017-11-07T13:39:46.166Z,90.11
2017-11-07T13:42:13.664Z,89.19
2017-11-07T13:44:41.183Z,89.04
2017-11-07T13:47:08.673Z,87.85
2017-11-07T13:49:36.183Z,88.41
2017-11-07T13:52:03.686Z,87.67
2017-11-07T13:54:31.222Z,87.96
2017-11-07T13:56:58.725Z,88.42
2017-11-07T13:59:26.252Z,89.17
2017-11-07T14:01:53.844Z,89.01
2017-11-07T14:04:21.403Z,88.47
2017-11-07T14:06:48.927Z,88.32
2017-11-07T14:09:16.465Z,87.96
2017-11-07T14:11:43.975Z,88.31
2017-11-07T14:14:11.593Z,88.24
2017-11-07T14:16:39.101Z,88.05
2017-11-07T14:19:06.606Z,88.77
2017-11-07T14:21:34.109Z,88.88
2017-11-07T14:24:01.622Z,88.34
2017-11-07T14:26:29.130Z,87.77
2017-11-07T14:28:56.639Z,88.07
2017-11-07T14:31:24.153Z,87.87
2017-11-07T14:33:51.654Z,88.48
2017-11-07T14:36:19.183Z,89.13
2017-11-07T14:38:46.686Z,89.79
2017-11-07T14:41:14.192Z,90.85
2017-11-07T14:43:41.706Z,90.38
2017-11-07T14:46:09.494Z,90.38
2017-11-07T14:48:37.006Z,90.02
2017-11-07T14:51:04.529Z,89.38
2017-11-07T14:53:32.045Z,90.12
2017-11-07T14:55:59.546Z,89.91
2017-11-07T14:58:27.050Z,89.68
2017-11-07T15:00:54.558Z,90.04
2017-11-07T15:03:22.061Z,89.33
2017-11-07T15:05:49.606Z,90.38
2017-11-07T15:08:17.157Z,89.90
2017-11-07T15:10:44.672Z,90.18
2017-11-07T15:13:12.193Z,90.61
2017-11-07T15:15:39.735Z,90.82
2017-11-07T15:18:07.241Z,90.47
2017-11-07T15:20:34.754Z,90.44
2017-11-07T15:23:02.375Z,90.90
2017-11-07T15:25:29.904Z,89.98
2017-11-07T15:27:57.688Z,89.91
2017-11-07T15:30:25.210Z,90.05
2017-11-07T15:32:52.748Z,90.58
2017-11-07T15:35:20.289Z,89.56
2017-11-07T15:37:47.834Z,89.99
2017-11-07T15:40:15.366Z,90.41
2017-11-07T15:42:42.884Z,89.42
2017-11-07T15:45:10.402Z,90.60
2017-11-07T15:47:37.910Z,90.69
2017-11-07T15:50:05.423Z,91.50
2017-11-07T15:52:32.933Z,91.46
2017-11-07T15:55:00.476Z,91.09
2017-11-07T15:57:28.163Z,91.21
2017-11-07T15:59:55.694Z,91.04
2017-11-07T16:02:23.193Z,90.32
2017-11-07T16:04:50.736Z,90.32
2017-11-07T16:07:18.241Z,90.74
2017-11-07T16:09:45.743Z,91.55
2017-11-07T16:12:13.540Z,91.34
2017-11-07T16:14:41.044Z,90.55
2017-11-07T16:17:08.578Z,91.41
2017-11-07T16:19:36.087Z,90.72
2017-11-07T16:22:03.617Z,90.22
2017-11-07T16:24:31.159Z,90.45
2017-11-07T16:26:58.689Z,90.37
2017-11-07T16:29:26.209Z,90.67
2017-11-07T16:31:53.762Z,90.51
2017-11-07T16:34:21.318Z,91.28
2017-11-07T16:36:48.851Z,92.06
2017-11-07T16:39:16.364Z,91.58
2017-11-07T16:41:43.895Z,92.11
2017-11-07T16:44:11.399Z,91.81
2017-11-07T16:46:38.899Z,92.48
2017-11-07T16:49:06.406Z,91.83
2017-11-07T16:51:33.923Z,92.69
2017-11-07T16:54:01.539Z,92.70
2017-11-07T16:56:29.045Z,92.86
2017-11-07T16:58:56.563Z,92.48
2017-11-07T17:01:24.306Z,91.96
2017-11-07T17:03:51.807Z,92.05
2017-11-07T17:06:19.321Z,92.40
2017-11-07T17:08:46.832Z,92.57
2017-11-07T17:11:14.339Z,92.75
2017-11-07T17:13:41.880Z,92.78
2017-11-07T17:16:09.393Z,91.82
2017-11-07T17:18:36.925Z,92.53
2017-11-07T17:21:04.442Z,92.51
2017-11-07T17:23:31.976Z,91.98
2017-11-07T17:25:59.645Z,91.98
2017-11-07T17:28:27.145Z,92.66
2017-11-07T17:30:54.707Z,92.86
2017-11-07T17:33:22.221Z,92.63
2017-11-07T17:35:49.751Z,92.75
2017-11-07T17:38:17.266Z,93.27
2017-11-07T17:40:44.781Z,93.14
2017-11-07T17:43:12.291Z,93.78
2017-11-07T17:45:39.798Z,93.06
2017-11-07T17:48:07.320Z,93.54
2017-11-07T17:50:34.833Z,93.94
2017-11-07T17:53:02.357Z,94.01
2017-11-07T17:55:29.888Z,92.82
2017-11-07T17:57:57.403Z,93.07
2017-11-07T18:00:24.938Z,93.63
2017-11-07T18:02:52.454Z,94.03
2017-11-07T18:05:20.011Z,94.42
2017-11-07T18:07:47.550Z,94.58
2017-11-07T18:10:15.056Z,94.89
2017-11-07T18:12:42.613Z,94.75
2017-11-07T18:15:10.110Z,94.74
2017-11-07T18:17:37.648Z,94.52
2017-11-07T18:20:05.202Z,94.90
2017-11-07T18:22:32.718Z,94.30
2017-11-07T18:25:00.241Z,94.92
2017-11-07T18:27:27.770Z,92.86
2017-11-07T18:29:55.310Z,93.15
2017-11-07T18:32:22.834Z,93.95
2017-11-07T18:34:50.372Z,93.92
2017-11-07T18:37:17.928Z,94.85
2017-11-07T18:39:45.453Z,95.21
2017-11-07T18:42:12.980Z,95.46
2017-11-07T18:44:40.528Z,94.99
2017-11-07T18:47:08.038Z,95.28
2017-11-07T18:49:35.545Z,95.45
2017-11-07T18:52:03.092Z,95.45
2017-11-07T18:54:30.682Z,95.69
2017-11-07T18:56:58.248Z,95.97
2017-11-07T18:59:25.784Z,96.08
2017-11-07T19:01:53.281Z,96.32
2017-11-07T19:04:20.829Z,96.55
2017-11-07T19:06:48.476Z,96.71
2017-11-07T19:09:16.009Z,96.38
2017-11-07T19:11:43.528Z,96.46
2017-11-07T19:14:11.051Z,96.67
2017-11-07T19:16:38.939Z,96.39
2017-11-07T19:19:06.451Z,96.37
2017-11-07T19:21:34.077Z,96.20
2017-11-07T19:24:01.583Z,96.46
2017-11-07T19:26:29.139Z,96.68
2017-11-07T19:28:56.665Z,96.58
2017-11-07T19:31:24.168Z,97.15
2017-11-07T19:33:51.738Z,97.17
2017-11-07T19:36:19.287Z,97.11
2017-11-07T19:38:46.809Z,96.18
2017-11-07T19:41:14.333Z,96.33
2017-11-07T19:43:41.900Z,96.69
2017-11-07T19:46:09.415Z,97.00
2017-11-07T19:48:36.957Z,97.29
2017-11-07T19:51:04.472Z,97.14
2017-11-07T19:53:32.011Z,97.39
2017-11-07T19:55:59.532Z,97.20
2017-11-07T19:58:27.051Z,97.61
2017-11-07T20:00:54.575Z,97.85
2017-11-07T20:03:22.177Z,97.65
2017-11-07T20:05:49.687Z,97.46
2017-11-07T20:08:17.207Z,97.29
2017-11-07T20:10:44.750Z,96.75
2017-11-07T20:13:12.301Z,97.26
2017-11-07T20:15:39.823Z,97.50
2017-11-07T20:18:07.347Z,97.70
2017-11-07T20:20:34.903Z,97.88
2017-11-07T20:23:02.436Z,97.91
2017-11-07T20:25:29.958Z,97.98
2017-11-07T20:27:57.611Z,97.84
2017-11-07T20:30:25.120Z,97.45
2017-11-07T20:32:52.641Z,97.79
2017-11-07T20:35:20.288Z,98.26
2017-11-07T20:37:47.825Z,97.98
2017-11-07T20:40:15.385Z,98.13
2017-11-07T20:42:42.905Z,97.81
2017-11-07T20:45:10.425Z,97.76
2017-11-07T20:47:37.949Z,97.24
2017-11-07T20:50:05.477Z,97.17
2017-11-07T20:52:33.047Z,97.52
2017-11-07T20:55:00.553Z,97.57
2017-11-07T20:57:28.088Z,97.54
2017-11-07T20:59:55.594Z,97.92
2017-11-07T21:02:23.119Z,98.09
2017-11-07T21:04:50.646Z,97.66
2017-11-07T21:07:18.153Z,97.94
2017-11-07T21:09:45.683Z,98.03
2017-11-07T21:12:13.219Z,98.08
2017-11-07T21:14:40.730Z,98.49
2017-11-07T21:17:08.406Z,98.42
2017-11-07T21:19:36.711Z,98.27
2017-11-07T21:22:04.247Z,98.33
2017-11-07T21:24:31.800Z,98.33
2017-11-07T21:26:59.325Z,98.60
2017-11-07T21:29:26.821Z,98.75
2017-11-07T21:31:54.421Z,98.79
2017-11-07T21:34:22.922Z,98.53
2017-11-07T21:36:50.423Z,98.34
2017-11-07T21:39:17.936Z,98.49
2017-11-07T21:41:45.443Z,98.12
2017-11-07T21:44:12.988Z,98.01
2017-11-07T21:46:40.488Z,98.13
2017-11-07T21:49:08.011Z,98.16
2017-11-07T21:51:35.519Z,98.21
2017-11-07T21:54:03.059Z,98.20
2017-11-07T21:56:30.590Z,98.33
2017-11-07T21:58:58.106Z,98.43
2017-11-07T22:01:25.639Z,98.26
2017-11-07T22:03:53.142Z,98.26
2017-11-07T22:06:20.646Z,98.18
2017-11-07T22:08:48.159Z,97.98
2017-11-07T22:11:15.657Z,97.87
2017-11-07T22:13:43.258Z,97.83
2017-11-07T22:16:10.784Z,97.48
2017-11-07T22:18:38.289Z,97.27
2017-11-07T22:21:05.818Z,97.38
2017-11-07T22:23:39.094Z,97.91
2017-11-07T22:26:06.618Z,97.83
2017-11-07T22:28:34.146Z,97.51
2017-11-07T22:31:01.671Z,97.80
2017-11-07T22:33:29.207Z,97.37
2017-11-07T22:35:56.706Z,96.49
2017-11-07T22:38:24.218Z,96.41
2017-11-07T22:40:51.737Z,96.76
2017-11-07T22:43:19.290Z,97.06
2017-11-07T22:45:46.801Z,97.07
2017-11-07T22:48:14.306Z,96.86
2017-11-07T22:50:41.807Z,97.07
2017-11-07T22:53:09.334Z,97.55
2017-11-07T22:55:36.842Z,97.74
2017-11-07T22:58:04.454Z,97.63
2017-11-07T23:00:32.096Z,97.62
2017-11-07T23:02:59.611Z,97.80
2017-11-07T23:05:27.127Z,97.75
2017-11-07T23:07:54.642Z,97.68
2017-11-07T23:10:22.225Z,97.70
2017-11-07T23:12:49.754Z,97.67
2017-11-07T23:15:17.295Z,98.04
2017-11-07T23:17:44.798Z,97.90
2017-11-07T23:20:12.337Z,97.47
2017-11-07T23:22:39.870Z,97.17
2017-11-07T23:25:07.375Z,97.04
2017-11-07T23:27:34.933Z,97.14
2017-11-07T23:30:02.454Z,97.43
2017-11-07T23:32:29.954Z,97.10
2017-11-07T23:34:57.483Z,97.38
2017-11-07T23:37:24.989Z,97.77
2017-11-07T23:39:52.495Z,97.94
2017-11-07T23:42:20.114Z,98.27
2017-11-07T23:44:47.615Z,98.35
2017-11-07T23:47:15.121Z,98.34
2017-11-07T23:49:42.622Z,98.36
2017-11-07T23:52:10.123Z,98.51
2017-11-07T23:54:37.651Z,98.33
2017-11-07T23:57:05.151Z,98.29
2017-11-07T23:59:32.674Z,97.99
